Krisjanis Valdemars — V7LI9 — position and weather

sailwx.info

Track history (hours):
 
Tides and Currents Weather Stations Pressure Air Temp Water Temp Dewpoint Dewpoint Depression Visibility Wind Speed Wind Dir Waves Ship Positions

Krisjanis Valdemars

Last reported at 2017-Feb-20 10:29 UTC. Time now 2017-Feb-23 20:45 UTC.
Position N 41°20' E 002°09'.

Length 183 m; draft 7.2 m.

Type: Tanker. MMSI: 538002757.

Date/timePositionNaut miles runAvg speedWind from/ knotsBaromVisibWave heightAir tempDewpointWater temp
2017-Feb-20 10:29N 41°20' E 002°09'3 2.9
2017-Feb-20 09:30N 41°18' E 002°11'0 0.1
2017-Feb-20 04:31N 41°18' E 002°11'0 0.0
2017-Feb-20 01:22N 41°18' E 002°11'0 0.0
2017-Feb-20 00:31N 41°18' E 002°11'0 0.0
2017-Feb-19 20:31N 41°18' E 002°11'0 0.0
2017-Feb-18 23:19N 41°18' E 002°11'0 0.0
2017-Feb-18 22:31N 41°18' E 002°11'0 0.0
2017-Feb-18 20:31N 41°18' E 002°11'0 0.0
2017-Feb-18 19:19N 41°18' E 002°11'0 0.2
2017-Feb-18 18:22N 41°18' E 002°11'1310.6
2017-Feb-18 17:10N 41°11' E 002°25'813.3
2017-Feb-18 16:33N 41°07' E 002°35'1313.4
2017-Feb-18 15:33N 41°00' E 002°50'1313.1
2017-Feb-18 14:33N 40°54' E 003°05'1413.1
2017-Feb-18 13:29N 40°47' E 003°21'27313.7
2017-Feb-17 17:30N 38°31' E 008°28'22113.5
2017-Feb-17 01:06N 36°55' E 012°40'2413.8
2017-Feb-16 23:23N 36°45' E 013°07'5213.5
2017-Feb-16 19:33N 36°24' E 014°06'1313.5
2017-Feb-16 18:33N 36°18' E 014°21'1313.5
2017-Feb-16 17:33N 36°10' E 014°34'1413.7
2017-Feb-16 16:33N 36°00' E 014°46'5 4.4
2017-Feb-16 15:30N 35°57' E 014°50'0 0.0
2017-Feb-16 13:21N 35°57' E 014°50'0 0.0
2017-Feb-16 11:27N 35°57' E 014°50'0 0.1
2017-Feb-16 10:33N 35°57' E 014°50'0 0.0
2017-Feb-16 09:18N 35°57' E 014°50'0 0.0
2017-Feb-16 08:33N 35°57' E 014°50'0 0.0
2017-Feb-14 07:23N 35°57' E 014°50'0 0.0
2017-Feb-14 01:29N 35°57' E 014°50'0 0.0
2017-Feb-13 22:11N 35°57' E 014°50'0 0.0
2017-Feb-13 21:32N 35°57' E 014°50'0 0.0
2017-Feb-13 20:29N 35°57' E 014°50'6 1.9
2017-Feb-13 17:13N 35°58' E 014°43'6 9.1
2017-Feb-13 16:33N 35°58' E 014°35'1 0.8
2017-Feb-13 15:34N 35°57' E 014°36'7 6.8
2017-Feb-13 14:33N 35°60' E 014°44'7 7.0
2017-Feb-13 13:33N 36°01' E 014°52'1 0.0
2017-Feb-12 16:09N 36°00' E 014°52'8 3.0
2017-Feb-12 13:25N 35°59' E 014°42'2 2.5
2017-Feb-12 12:33N 35°58' E 014°39'1 0.6
2017-Feb-12 11:33N 35°58' E 014°38'8 7.5
2017-Feb-12 10:33N 35°57' E 014°48'2 0.2
2017-Feb-11 20:04N 35°57' E 014°51'  
Track history (hours):
 
Tides and Currents Weather Stations Pressure Air Temp Water Temp Dewpoint Dewpoint Depression Visibility Wind Speed Wind Dir Waves Ship Positions

Krisjanis Valdemars

Last reported at 2017-Feb-20 10:29 UTC. Time now 2017-Feb-23 20:45 UTC.
Position N 41°20' E 002°09'.

Length 183 m; draft 7.2 m.

Type: Tanker. MMSI: 538002757.

Date/timePositionNaut miles runAvg speedWind from/ knotsBaromVisibWave heightAir tempDewpointWater temp
2017-Feb-20 10:29N 41°20' E 002°09'3 2.9
2017-Feb-20 09:30N 41°18' E 002°11'0 0.1
2017-Feb-20 04:31N 41°18' E 002°11'0 0.0
2017-Feb-20 01:22N 41°18' E 002°11'0 0.0
2017-Feb-20 00:31N 41°18' E 002°11'0 0.0
2017-Feb-19 20:31N 41°18' E 002°11'0 0.0
2017-Feb-18 23:19N 41°18' E 002°11'0 0.0
2017-Feb-18 22:31N 41°18' E 002°11'0 0.0
2017-Feb-18 20:31N 41°18' E 002°11'0 0.0
2017-Feb-18 19:19N 41°18' E 002°11'0 0.2
2017-Feb-18 18:22N 41°18' E 002°11'1310.6
2017-Feb-18 17:10N 41°11' E 002°25'813.3
2017-Feb-18 16:33N 41°07' E 002°35'1313.4
2017-Feb-18 15:33N 41°00' E 002°50'1313.1
2017-Feb-18 14:33N 40°54' E 003°05'1413.1
2017-Feb-18 13:29N 40°47' E 003°21'27313.7
2017-Feb-17 17:30N 38°31' E 008°28'22113.5
2017-Feb-17 01:06N 36°55' E 012°40'2413.8
2017-Feb-16 23:23N 36°45' E 013°07'5213.5
2017-Feb-16 19:33N 36°24' E 014°06'1313.5
2017-Feb-16 18:33N 36°18' E 014°21'1313.5
2017-Feb-16 17:33N 36°10' E 014°34'1413.7
2017-Feb-16 16:33N 36°00' E 014°46'5 4.4
2017-Feb-16 15:30N 35°57' E 014°50'0 0.0
2017-Feb-16 13:21N 35°57' E 014°50'0 0.0
2017-Feb-16 11:27N 35°57' E 014°50'0 0.1
2017-Feb-16 10:33N 35°57' E 014°50'0 0.0
2017-Feb-16 09:18N 35°57' E 014°50'0 0.0
2017-Feb-16 08:33N 35°57' E 014°50'0 0.0
2017-Feb-14 07:23N 35°57' E 014°50'0 0.0
2017-Feb-14 01:29N 35°57' E 014°50'0 0.0
2017-Feb-13 22:11N 35°57' E 014°50'0 0.0
2017-Feb-13 21:32N 35°57' E 014°50'0 0.0
2017-Feb-13 20:29N 35°57' E 014°50'6 1.9
2017-Feb-13 17:13N 35°58' E 014°43'6 9.1
2017-Feb-13 16:33N 35°58' E 014°35'1 0.8
2017-Feb-13 15:34N 35°57' E 014°36'7 6.8
2017-Feb-13 14:33N 35°60' E 014°44'7 7.0
2017-Feb-13 13:33N 36°01' E 014°52'1 0.0
2017-Feb-12 16:09N 36°00' E 014°52'8 3.0
2017-Feb-12 13:25N 35°59' E 014°42'2 2.5
2017-Feb-12 12:33N 35°58' E 014°39'1 0.6
2017-Feb-12 11:33N 35°58' E 014°38'8 7.5
2017-Feb-12 10:33N 35°57' E 014°48'2 0.2
2017-Feb-11 20:04N 35°57' E 014°51'  

Dump ship's entire track history